sensor_id;sensor_type;location;lat;lon;timestamp;temperature;humidity
18575;DHT22;9417;16.484;102.872;2022-11-20T00:00:48;23.60;94.20
18575;DHT22;9417;16.484;102.872;2022-11-20T00:02:55;23.70;94.20
18575;DHT22;9417;16.484;102.872;2022-11-20T00:05:03;23.70;94.20
18575;DHT22;9417;16.484;102.872;2022-11-20T00:07:10;23.70;94.50
18575;DHT22;9417;16.484;102.872;2022-11-20T00:09:17;23.80;94.30
18575;DHT22;9417;16.484;102.872;2022-11-20T00:11:26;23.80;94.10
18575;DHT22;9417;16.484;102.872;2022-11-20T00:13:34;23.90;93.90
18575;DHT22;9417;16.484;102.872;2022-11-20T00:15:41;23.90;93.90
18575;DHT22;9417;16.484;102.872;2022-11-20T00:17:50;24.00;94.30
18575;DHT22;9417;16.484;102.872;2022-11-20T00:19:57;23.90;94.20
18575;DHT22;9417;16.484;102.872;2022-11-20T00:22:04;24.00;94.10
18575;DHT22;9417;16.484;102.872;2022-11-20T00:24:11;24.00;93.90
18575;DHT22;9417;16.484;102.872;2022-11-20T00:26:19;24.10;93.70
18575;DHT22;9417;16.484;102.872;2022-11-20T00:28:27;24.10;93.60
18575;DHT22;9417;16.484;102.872;2022-11-20T00:30:33;24.20;93.80
18575;DHT22;9417;16.484;102.872;2022-11-20T00:32:41;24.20;93.90
18575;DHT22;9417;16.484;102.872;2022-11-20T00:34:49;24.30;93.60
18575;DHT22;9417;16.484;102.872;2022-11-20T00:36:57;24.30;93.60
18575;DHT22;9417;16.484;102.872;2022-11-20T00:39:04;24.40;93.60
18575;DHT22;9417;16.484;102.872;2022-11-20T00:41:13;24.40;92.90
18575;DHT22;9417;16.484;102.872;2022-11-20T00:43:20;24.40;92.40
18575;DHT22;9417;16.484;102.872;2022-11-20T00:45:27;24.50;92.30
18575;DHT22;9417;16.484;102.872;2022-11-20T00:47:34;24.50;92.20
18575;DHT22;9417;16.484;102.872;2022-11-20T00:49:41;24.50;92.60
18575;DHT22;9417;16.484;102.872;2022-11-20T00:51:49;24.60;92.30
18575;DHT22;9417;16.484;102.872;2022-11-20T00:53:58;24.60;91.90
18575;DHT22;9417;16.484;102.872;2022-11-20T00:56:07;24.60;92.00
18575;DHT22;9417;16.484;102.872;2022-11-20T00:58:16;24.70;91.80
18575;DHT22;9417;16.484;102.872;2022-11-20T01:00:23;24.70;92.00
18575;DHT22;9417;16.484;102.872;2022-11-20T01:02:30;24.80;91.70
18575;DHT22;9417;16.484;102.872;2022-11-20T01:04:40;24.80;91.80
18575;DHT22;9417;16.484;102.872;2022-11-20T01:06:48;24.90;90.70
18575;DHT22;9417;16.484;102.872;2022-11-20T01:08:57;24.90;89.90
18575;DHT22;9417;16.484;102.872;2022-11-20T01:11:07;24.90;89.90
18575;DHT22;9417;16.484;102.872;2022-11-20T01:13:15;25.00;89.40
18575;DHT22;9417;16.484;102.872;2022-11-20T01:15:39;25.00;89.60
18575;DHT22;9417;16.484;102.872;2022-11-20T01:17:46;25.10;89.30
18575;DHT22;9417;16.484;102.872;2022-11-20T01:19:53;25.10;89.20
18575;DHT22;9417;16.484;102.872;2022-11-20T01:22:02;25.20;88.90
18575;DHT22;9417;16.484;102.872;2022-11-20T01:24:11;25.20;88.60
18575;DHT22;9417;16.484;102.872;2022-11-20T01:26:20;25.20;88.00
18575;DHT22;9417;16.484;102.872;2022-11-20T01:28:28;25.30;88.40
18575;DHT22;9417;16.484;102.872;2022-11-20T01:30:35;25.40;87.50
18575;DHT22;9417;16.484;102.872;2022-11-20T01:32:42;25.40;87.20
18575;DHT22;9417;16.484;102.872;2022-11-20T01:34:49;25.40;87.00
18575;DHT22;9417;16.484;102.872;2022-11-20T01:36:56;25.40;86.90
18575;DHT22;9417;16.484;102.872;2022-11-20T01:39:06;25.40;86.90
18575;DHT22;9417;16.484;102.872;2022-11-20T01:41:13;25.40;85.60
18575;DHT22;9417;16.484;102.872;2022-11-20T01:43:42;25.50;86.20
18575;DHT22;9417;16.484;102.872;2022-11-20T01:46:02;25.50;85.80
18575;DHT22;9417;16.484;102.872;2022-11-20T01:48:09;25.60;86.70
18575;DHT22;9417;16.484;102.872;2022-11-20T01:50:22;25.60;85.70
18575;DHT22;9417;16.484;102.872;2022-11-20T01:52:35;25.60;84.10
18575;DHT22;9417;16.484;102.872;2022-11-20T01:54:47;25.60;84.00
18575;DHT22;9417;16.484;102.872;2022-11-20T01:56:56;25.70;83.70
18575;DHT22;9417;16.484;102.872;2022-11-20T01:59:06;25.80;82.80
18575;DHT22;9417;16.484;102.872;2022-11-20T02:01:15;25.80;83.40
18575;DHT22;9417;16.484;102.872;2022-11-20T02:03:22;25.90;82.30
18575;DHT22;9417;16.484;102.872;2022-11-20T02:05:34;25.90;82.30
18575;DHT22;9417;16.484;102.872;2022-11-20T02:07:42;26.00;81.90
18575;DHT22;9417;16.484;102.872;2022-11-20T02:09:52;26.00;81.70
18575;DHT22;9417;16.484;102.872;2022-11-20T02:12:01;26.00;81.00
18575;DHT22;9417;16.484;102.872;2022-11-20T02:14:10;26.00;82.00
18575;DHT22;9417;16.484;102.872;2022-11-20T02:16:19;26.10;81.90
18575;DHT22;9417;16.484;102.872;2022-11-20T02:18:27;26.10;81.00
18575;DHT22;9417;16.484;102.872;2022-11-20T02:20:35;26.20;81.80
18575;DHT22;9417;16.484;102.872;2022-11-20T02:22:47;26.20;82.30
18575;DHT22;9417;16.484;102.872;2022-11-20T02:24:57;26.40;81.40
18575;DHT22;9417;16.484;102.872;2022-11-20T02:27:09;26.40;80.60
18575;DHT22;9417;16.484;102.872;2022-11-20T02:29:18;26.50;79.80
18575;DHT22;9417;16.484;102.872;2022-11-20T02:31:26;26.50;78.20
18575;DHT22;9417;16.484;102.872;2022-11-20T02:33:33;26.60;79.20
18575;DHT22;9417;16.484;102.872;2022-11-20T02:35:43;26.60;79.80
18575;DHT22;9417;16.484;102.872;2022-11-20T02:37:54;26.70;79.30
18575;DHT22;9417;16.484;102.872;2022-11-20T02:40:04;26.70;79.50
18575;DHT22;9417;16.484;102.872;2022-11-20T02:42:11;26.70;78.70
18575;DHT22;9417;16.484;102.872;2022-11-20T02:44:18;26.70;77.80
18575;DHT22;9417;16.484;102.872;2022-11-20T02:46:25;26.80;78.70
18575;DHT22;9417;16.484;102.872;2022-11-20T02:48:32;26.80;78.60
18575;DHT22;9417;16.484;102.872;2022-11-20T02:50:40;26.80;78.80
18575;DHT22;9417;16.484;102.872;2022-11-20T02:52:47;26.80;78.70
18575;DHT22;9417;16.484;102.872;2022-11-20T02:54:54;26.90;78.70
18575;DHT22;9417;16.484;102.872;2022-11-20T02:57:03;26.90;78.50
18575;DHT22;9417;16.484;102.872;2022-11-20T02:59:10;27.00;78.80
18575;DHT22;9417;16.484;102.872;2022-11-20T03:01:18;27.00;78.50
18575;DHT22;9417;16.484;102.872;2022-11-20T03:03:25;27.10;77.60
18575;DHT22;9417;16.484;102.872;2022-11-20T03:05:33;27.10;77.00
18575;DHT22;9417;16.484;102.872;2022-11-20T03:07:40;27.20;77.10
18575;DHT22;9417;16.484;102.872;2022-11-20T03:09:47;27.20;76.70
18575;DHT22;9417;16.484;102.872;2022-11-20T03:11:54;27.30;76.70
18575;DHT22;9417;16.484;102.872;2022-11-20T03:14:04;27.40;74.30
18575;DHT22;9417;16.484;102.872;2022-11-20T03:16:13;27.50;72.70
18575;DHT22;9417;16.484;102.872;2022-11-20T03:18:20;27.60;73.50
18575;DHT22;9417;16.484;102.872;2022-11-20T03:20:27;27.70;73.20
18575;DHT22;9417;16.484;102.872;2022-11-20T03:22:34;27.80;72.70
18575;DHT22;9417;16.484;102.872;2022-11-20T03:24:41;27.90;71.40
18575;DHT22;9417;16.484;102.872;2022-11-20T03:26:49;28.00;71.80
18575;DHT22;9417;16.484;102.872;2022-11-20T03:28:56;28.20;71.50
18575;DHT22;9417;16.484;102.872;2022-11-20T03:31:12;28.30;71.70
18575;DHT22;9417;16.484;102.872;2022-11-20T03:33:20;28.50;70.90
18575;DHT22;9417;16.484;102.872;2022-11-20T03:35:27;28.60;70.30
18575;DHT22;9417;16.484;102.872;2022-11-20T03:37:34;28.60;69.10
18575;DHT22;9417;16.484;102.872;2022-11-20T03:39:41;28.60;69.20
18575;DHT22;9417;16.484;102.872;2022-11-20T03:41:48;28.60;69.30
18575;DHT22;9417;16.484;102.872;2022-11-20T03:43:56;28.60;69.20
18575;DHT22;9417;16.484;102.872;2022-11-20T03:46:04;28.70;67.40
18575;DHT22;9417;16.484;102.872;2022-11-20T03:48:13;28.70;68.30
18575;DHT22;9417;16.484;102.872;2022-11-20T03:50:20;28.80;68.50
18575;DHT22;9417;16.484;102.872;2022-11-20T03:52:27;28.90;67.50
18575;DHT22;9417;16.484;102.872;2022-11-20T03:54:34;28.90;68.10
18575;DHT22;9417;16.484;102.872;2022-11-20T03:56:42;28.90;67.30
18575;DHT22;9417;16.484;102.872;2022-11-20T03:58:49;28.90;66.20
18575;DHT22;9417;16.484;102.872;2022-11-20T04:00:56;28.80;67.00
18575;DHT22;9417;16.484;102.872;2022-11-20T04:03:03;28.80;67.60
18575;DHT22;9417;16.484;102.872;2022-11-20T04:05:12;28.90;67.60
18575;DHT22;9417;16.484;102.872;2022-11-20T04:07:19;29.00;67.20
18575;DHT22;9417;16.484;102.872;2022-11-20T04:09:26;29.10;67.20
18575;DHT22;9417;16.484;102.872;2022-11-20T04:11:35;29.10;65.30
18575;DHT22;9417;16.484;102.872;2022-11-20T04:13:45;29.00;64.90
18575;DHT22;9417;16.484;102.872;2022-11-20T04:15:57;28.90;65.60
18575;DHT22;9417;16.484;102.872;2022-11-20T04:18:05;28.90;65.30
18575;DHT22;9417;16.484;102.872;2022-11-20T04:20:14;28.90;65.70
18575;DHT22;9417;16.484;102.872;2022-11-20T04:22:21;29.00;65.10
18575;DHT22;9417;16.484;102.872;2022-11-20T04:24:28;28.90;65.60
18575;DHT22;9417;16.484;102.872;2022-11-20T04:26:35;28.90;65.10
18575;DHT22;9417;16.484;102.872;2022-11-20T04:28:43;29.00;64.70
18575;DHT22;9417;16.484;102.872;2022-11-20T04:30:50;29.00;64.90
18575;DHT22;9417;16.484;102.872;2022-11-20T04:32:57;29.10;65.00
18575;DHT22;9417;16.484;102.872;2022-11-20T04:35:05;29.10;64.30
18575;DHT22;9417;16.484;102.872;2022-11-20T04:37:13;29.20;64.20
18575;DHT22;9417;16.484;102.872;2022-11-20T04:39:20;29.30;62.90
18575;DHT22;9417;16.484;102.872;2022-11-20T04:41:28;29.20;63.40
18575;DHT22;9417;16.484;102.872;2022-11-20T04:43:35;29.30;64.40
18575;DHT22;9417;16.484;102.872;2022-11-20T04:45:42;29.30;64.20
18575;DHT22;9417;16.484;102.872;2022-11-20T04:47:49;29.20;64.30
18575;DHT22;9417;16.484;102.872;2022-11-20T04:49:57;29.20;64.80
18575;DHT22;9417;16.484;102.872;2022-11-20T04:52:05;29.20;64.40
18575;DHT22;9417;16.484;102.872;2022-11-20T04:54:14;29.20;64.60
18575;DHT22;9417;16.484;102.872;2022-11-20T04:56:21;29.30;63.20
18575;DHT22;9417;16.484;102.872;2022-11-20T04:58:29;29.30;63.00
18575;DHT22;9417;16.484;102.872;2022-11-20T05:00:36;29.40;62.60
18575;DHT22;9417;16.484;102.872;2022-11-20T05:02:43;29.50;62.20
18575;DHT22;9417;16.484;102.872;2022-11-20T05:04:50;29.50;62.80
18575;DHT22;9417;16.484;102.872;2022-11-20T05:06:57;29.60;63.60
18575;DHT22;9417;16.484;102.872;2022-11-20T05:09:05;29.60;62.70
18575;DHT22;9417;16.484;102.872;2022-11-20T05:11:15;29.60;62.60
18575;DHT22;9417;16.484;102.872;2022-11-20T05:13:23;29.60;62.80
18575;DHT22;9417;16.484;102.872;2022-11-20T05:15:30;29.60;62.30
18575;DHT22;9417;16.484;102.872;2022-11-20T05:17:37;29.60;61.80
18575;DHT22;9417;16.484;102.872;2022-11-20T05:19:44;29.70;61.70
18575;DHT22;9417;16.484;102.872;2022-11-20T05:21:55;29.80;61.90
18575;DHT22;9417;16.484;102.872;2022-11-20T05:24:02;29.90;60.60
18575;DHT22;9417;16.484;102.872;2022-11-20T05:26:14;29.90;61.70
18575;DHT22;9417;16.484;102.872;2022-11-20T05:28:23;30.00;61.00
18575;DHT22;9417;16.484;102.872;2022-11-20T05:30:30;29.90;60.80
18575;DHT22;9417;16.484;102.872;2022-11-20T05:32:38;29.90;60.90
18575;DHT22;9417;16.484;102.872;2022-11-20T05:34:45;29.90;60.90
18575;DHT22;9417;16.484;102.872;2022-11-20T05:36:52;29.90;60.30
18575;DHT22;9417;16.484;102.872;2022-11-20T05:38:59;29.90;59.20
18575;DHT22;9417;16.484;102.872;2022-11-20T05:41:07;30.00;60.60
18575;DHT22;9417;16.484;102.872;2022-11-20T05:43:16;30.00;60.40
18575;DHT22;9417;16.484;102.872;2022-11-20T05:45:23;30.00;60.20
18575;DHT22;9417;16.484;102.872;2022-11-20T05:47:33;30.00;60.40
18575;DHT22;9417;16.484;102.872;2022-11-20T05:49:40;30.00;60.90
18575;DHT22;9417;16.484;102.872;2022-11-20T05:51:47;30.00;61.00
18575;DHT22;9417;16.484;102.872;2022-11-20T05:53:56;30.00;59.60
18575;DHT22;9417;16.484;102.872;2022-11-20T05:56:05;30.00;60.90
18575;DHT22;9417;16.484;102.872;2022-11-20T05:58:12;30.00;60.20
18575;DHT22;9417;16.484;102.872;2022-11-20T06:00:21;30.10;60.40
18575;DHT22;9417;16.484;102.872;2022-11-20T06:02:28;30.00;60.20
18575;DHT22;9417;16.484;102.872;2022-11-20T06:04:35;30.10;59.20
18575;DHT22;9417;16.484;102.872;2022-11-20T06:06:42;30.00;60.40
18575;DHT22;9417;16.484;102.872;2022-11-20T06:08:49;30.00;61.50
18575;DHT22;9417;16.484;102.872;2022-11-20T06:10:56;30.00;60.50
18575;DHT22;9417;16.484;102.872;2022-11-20T06:13:03;30.00;60.90
18575;DHT22;9417;16.484;102.872;2022-11-20T06:15:11;30.00;61.50
18575;DHT22;9417;16.484;102.872;2022-11-20T06:17:20;30.00;61.10
18575;DHT22;9417;16.484;102.872;2022-11-20T06:19:27;30.00;61.60
18575;DHT22;9417;16.484;102.872;2022-11-20T06:21:34;30.00;62.50
18575;DHT22;9417;16.484;102.872;2022-11-20T06:23:41;30.00;63.00
18575;DHT22;9417;16.484;102.872;2022-11-20T06:25:49;30.00;62.00
18575;DHT22;9417;16.484;102.872;2022-11-20T06:27:56;30.00;61.60
18575;DHT22;9417;16.484;102.872;2022-11-20T06:30:04;30.00;62.10
18575;DHT22;9417;16.484;102.872;2022-11-20T06:32:11;30.00;61.90
18575;DHT22;9417;16.484;102.872;2022-11-20T06:34:20;30.00;61.20
18575;DHT22;9417;16.484;102.872;2022-11-20T06:36:27;30.00;61.60
18575;DHT22;9417;16.484;102.872;2022-11-20T06:38:34;30.10;62.10
18575;DHT22;9417;16.484;102.872;2022-11-20T06:40:42;30.20;62.40
18575;DHT22;9417;16.484;102.872;2022-11-20T06:42:49;30.20;62.10
18575;DHT22;9417;16.484;102.872;2022-11-20T06:44:56;30.30;62.50
18575;DHT22;9417;16.484;102.872;2022-11-20T06:47:03;30.30;61.50
18575;DHT22;9417;16.484;102.872;2022-11-20T06:49:11;30.30;60.80
18575;DHT22;9417;16.484;102.872;2022-11-20T06:51:20;30.40;60.80
18575;DHT22;9417;16.484;102.872;2022-11-20T06:53:27;30.30;61.30
18575;DHT22;9417;16.484;102.872;2022-11-20T06:55:34;30.30;61.50
18575;DHT22;9417;16.484;102.872;2022-11-20T06:57:41;30.30;61.60
18575;DHT22;9417;16.484;102.872;2022-11-20T06:59:48;30.30;60.40
18575;DHT22;9417;16.484;102.872;2022-11-20T07:01:55;30.30;60.60
18575;DHT22;9417;16.484;102.872;2022-11-20T07:04:02;30.40;61.30
18575;DHT22;9417;16.484;102.872;2022-11-20T07:06:09;30.40;61.40
18575;DHT22;9417;16.484;102.872;2022-11-20T07:08:18;30.40;61.50
18575;DHT22;9417;16.484;102.872;2022-11-20T07:10:25;30.40;60.70
18575;DHT22;9417;16.484;102.872;2022-11-20T07:12:32;30.40;59.30
18575;DHT22;9417;16.484;102.872;2022-11-20T07:14:40;30.40;58.70
18575;DHT22;9417;16.484;102.872;2022-11-20T07:16:47;30.40;59.50
18575;DHT22;9417;16.484;102.872;2022-11-20T07:18:54;30.40;58.90
18575;DHT22;9417;16.484;102.872;2022-11-20T07:21:01;30.40;58.80
18575;DHT22;9417;16.484;102.872;2022-11-20T07:23:09;30.40;58.40
18575;DHT22;9417;16.484;102.872;2022-11-20T07:25:17;30.50;58.10
18575;DHT22;9417;16.484;102.872;2022-11-20T07:27:25;30.50;58.00
18575;DHT22;9417;16.484;102.872;2022-11-20T07:29:32;30.50;58.20
18575;DHT22;9417;16.484;102.872;2022-11-20T07:31:39;30.40;58.10
18575;DHT22;9417;16.484;102.872;2022-11-20T07:33:46;30.40;58.90
18575;DHT22;9417;16.484;102.872;2022-11-20T07:35:53;30.30;58.60
18575;DHT22;9417;16.484;102.872;2022-11-20T07:37:59;30.40;58.00
18575;DHT22;9417;16.484;102.872;2022-11-20T07:40:07;30.40;57.90
18575;DHT22;9417;16.484;102.872;2022-11-20T07:42:16;30.40;57.40
18575;DHT22;9417;16.484;102.872;2022-11-20T07:44:26;30.40;58.40
18575;DHT22;9417;16.484;102.872;2022-11-20T07:46:33;30.40;59.00
18575;DHT22;9417;16.484;102.872;2022-11-20T07:48:40;30.40;59.10
18575;DHT22;9417;16.484;102.872;2022-11-20T07:50:47;30.40;59.30
18575;DHT22;9417;16.484;102.872;2022-11-20T07:53:01;30.40;58.90
18575;DHT22;9417;16.484;102.872;2022-11-20T07:55:09;30.40;58.20
18575;DHT22;9417;16.484;102.872;2022-11-20T07:57:18;30.40;58.50
18575;DHT22;9417;16.484;102.872;2022-11-20T07:59:30;30.30;59.80
18575;DHT22;9417;16.484;102.872;2022-11-20T08:01:38;30.30;56.00
18575;DHT22;9417;16.484;102.872;2022-11-20T08:03:45;30.30;56.70
18575;DHT22;9417;16.484;102.872;2022-11-20T08:05:52;30.30;56.90
18575;DHT22;9417;16.484;102.872;2022-11-20T08:07:59;30.30;57.10
18575;DHT22;9417;16.484;102.872;2022-11-20T08:10:08;30.30;57.80
18575;DHT22;9417;16.484;102.872;2022-11-20T08:12:20;30.30;57.60
18575;DHT22;9417;16.484;102.872;2022-11-20T08:14:44;30.30;58.30
18575;DHT22;9417;16.484;102.872;2022-11-20T08:16:51;30.20;58.90
18575;DHT22;9417;16.484;102.872;2022-11-20T08:18:58;30.20;60.10
18575;DHT22;9417;16.484;102.872;2022-11-20T08:21:06;30.10;59.80
18575;DHT22;9417;16.484;102.872;2022-11-20T08:23:13;30.00;59.40
18575;DHT22;9417;16.484;102.872;2022-11-20T08:25:20;30.00;59.20
18575;DHT22;9417;16.484;102.872;2022-11-20T08:27:29;30.00;59.30
18575;DHT22;9417;16.484;102.872;2022-11-20T08:29:41;30.00;59.80
18575;DHT22;9417;16.484;102.872;2022-11-20T08:31:48;29.90;60.10
18575;DHT22;9417;16.484;102.872;2022-11-20T08:33:55;29.90;60.30
18575;DHT22;9417;16.484;102.872;2022-11-20T08:36:03;29.90;60.20
18575;DHT22;9417;16.484;102.872;2022-11-20T08:38:11;29.90;59.90
18575;DHT22;9417;16.484;102.872;2022-11-20T08:40:18;29.90;60.30
18575;DHT22;9417;16.484;102.872;2022-11-20T08:42:25;29.90;61.00
18575;DHT22;9417;16.484;102.872;2022-11-20T08:44:34;29.90;61.20
18575;DHT22;9417;16.484;102.872;2022-11-20T08:46:42;29.80;61.30
18575;DHT22;9417;16.484;102.872;2022-11-20T08:48:50;29.80;61.50
18575;DHT22;9417;16.484;102.872;2022-11-20T08:50:58;29.70;61.70
18575;DHT22;9417;16.484;102.872;2022-11-20T08:53:06;29.70;62.00
18575;DHT22;9417;16.484;102.872;2022-11-20T08:55:13;29.70;62.30
18575;DHT22;9417;16.484;102.872;2022-11-20T08:57:21;29.60;62.00
18575;DHT22;9417;16.484;102.872;2022-11-20T08:59:28;29.60;61.80
18575;DHT22;9417;16.484;102.872;2022-11-20T09:01:57;29.50;61.60
18575;DHT22;9417;16.484;102.872;2022-11-20T09:04:04;29.50;61.80
18575;DHT22;9417;16.484;102.872;2022-11-20T09:06:11;29.50;61.80
18575;DHT22;9417;16.484;102.872;2022-11-20T09:08:18;29.40;61.80
18575;DHT22;9417;16.484;102.872;2022-11-20T09:10:25;29.40;62.10
18575;DHT22;9417;16.484;102.872;2022-11-20T09:12:32;29.40;62.40
18575;DHT22;9417;16.484;102.872;2022-11-20T09:14:39;29.40;62.70
18575;DHT22;9417;16.484;102.872;2022-11-20T09:16:46;29.40;63.00
18575;DHT22;9417;16.484;102.872;2022-11-20T09:18:55;29.30;63.30
18575;DHT22;9417;16.484;102.872;2022-11-20T09:21:22;29.30;63.50
18575;DHT22;9417;16.484;102.872;2022-11-20T09:23:33;29.30;63.60
18575;DHT22;9417;16.484;102.872;2022-11-20T09:25:40;29.30;63.50
18575;DHT22;9417;16.484;102.872;2022-11-20T09:27:47;29.30;63.80
18575;DHT22;9417;16.484;102.872;2022-11-20T09:29:54;29.30;63.90
18575;DHT22;9417;16.484;102.872;2022-11-20T09:32:01;29.20;64.00
18575;DHT22;9417;16.484;102.872;2022-11-20T09:34:10;29.20;64.20
18575;DHT22;9417;16.484;102.872;2022-11-20T09:36:17;29.20;64.50
18575;DHT22;9417;16.484;102.872;2022-11-20T09:38:24;29.20;64.70
18575;DHT22;9417;16.484;102.872;2022-11-20T09:40:32;29.20;64.90
18575;DHT22;9417;16.484;102.872;2022-11-20T09:42:43;29.20;65.10
18575;DHT22;9417;16.484;102.872;2022-11-20T09:45:20;29.20;65.30
18575;DHT22;9417;16.484;102.872;2022-11-20T09:47:36;29.20;65.50
18575;DHT22;9417;16.484;102.872;2022-11-20T09:50:02;29.10;65.70
18575;DHT22;9417;16.484;102.872;2022-11-20T09:52:21;29.20;65.90
18575;DHT22;9417;16.484;102.872;2022-11-20T09:54:31;29.10;66.10
18575;DHT22;9417;16.484;102.872;2022-11-20T09:56:42;29.10;66.10
18575;DHT22;9417;16.484;102.872;2022-11-20T09:58:51;29.10;66.20
18575;DHT22;9417;16.484;102.872;2022-11-20T10:01:05;29.00;66.20
18575;DHT22;9417;16.484;102.872;2022-11-20T10:03:21;29.00;66.20
18575;DHT22;9417;16.484;102.872;2022-11-20T10:05:37;29.00;66.40
18575;DHT22;9417;16.484;102.872;2022-11-20T10:07:51;28.90;66.40
18575;DHT22;9417;16.484;102.872;2022-11-20T10:10:01;28.90;66.70
18575;DHT22;9417;16.484;102.872;2022-11-20T10:12:15;28.90;67.10
18575;DHT22;9417;16.484;102.872;2022-11-20T10:14:30;28.90;67.20
18575;DHT22;9417;16.484;102.872;2022-11-20T10:17:03;28.90;67.20
18575;DHT22;9417;16.484;102.872;2022-11-20T10:19:44;28.80;67.40
18575;DHT22;9417;16.484;102.872;2022-11-20T10:22:03;28.80;67.40
18575;DHT22;9417;16.484;102.872;2022-11-20T10:27:01;28.80;67.30
18575;DHT22;9417;16.484;102.872;2022-11-20T10:29:12;28.70;67.20
18575;DHT22;9417;16.484;102.872;2022-11-20T10:31:28;28.70;67.20
18575;DHT22;9417;16.484;102.872;2022-11-20T10:33:39;28.70;66.90
18575;DHT22;9417;16.484;102.872;2022-11-20T10:36:18;28.70;66.80
18575;DHT22;9417;16.484;102.872;2022-11-20T10:38:34;28.70;66.70
18575;DHT22;9417;16.484;102.872;2022-11-20T10:40:45;28.60;66.70
18575;DHT22;9417;16.484;102.872;2022-11-20T10:42:55;28.60;66.60
18575;DHT22;9417;16.484;102.872;2022-11-20T10:45:13;28.60;66.50
18575;DHT22;9417;16.484;102.872;2022-11-20T10:47:22;28.60;66.80
18575;DHT22;9417;16.484;102.872;2022-11-20T10:49:29;28.50;66.90
18575;DHT22;9417;16.484;102.872;2022-11-20T10:51:42;28.50;66.80
18575;DHT22;9417;16.484;102.872;2022-11-20T10:54:01;28.50;66.70
18575;DHT22;9417;16.484;102.872;2022-11-20T10:56:16;28.40;66.60
18575;DHT22;9417;16.484;102.872;2022-11-20T10:58:29;28.40;66.70
18575;DHT22;9417;16.484;102.872;2022-11-20T11:00:37;28.40;67.20
18575;DHT22;9417;16.484;102.872;2022-11-20T11:02:47;28.30;67.50
18575;DHT22;9417;16.484;102.872;2022-11-20T11:04:54;28.40;67.40
18575;DHT22;9417;16.484;102.872;2022-11-20T11:07:07;28.30;67.60
18575;DHT22;9417;16.484;102.872;2022-11-20T11:09:24;28.30;67.70
18575;DHT22;9417;16.484;102.872;2022-11-20T11:11:35;28.30;67.40
18575;DHT22;9417;16.484;102.872;2022-11-20T11:13:45;28.30;67.30
18575;DHT22;9417;16.484;102.872;2022-11-20T11:15:52;28.20;67.70
18575;DHT22;9417;16.484;102.872;2022-11-20T11:18:00;28.20;68.70
18575;DHT22;9417;16.484;102.872;2022-11-20T11:20:15;28.10;69.20
18575;DHT22;9417;16.484;102.872;2022-11-20T11:22:23;28.10;69.50
18575;DHT22;9417;16.484;102.872;2022-11-20T11:24:31;28.00;70.20
18575;DHT22;9417;16.484;102.872;2022-11-20T11:26:55;28.00;70.80
18575;DHT22;9417;16.484;102.872;2022-11-20T11:29:04;27.90;70.00
18575;DHT22;9417;16.484;102.872;2022-11-20T11:31:23;27.90;70.90
18575;DHT22;9417;16.484;102.872;2022-11-20T11:33:31;27.90;71.90
18575;DHT22;9417;16.484;102.872;2022-11-20T11:35:46;27.90;72.50
18575;DHT22;9417;16.484;102.872;2022-11-20T11:38:03;27.80;73.20
18575;DHT22;9417;16.484;102.872;2022-11-20T11:42:29;27.70;72.90
18575;DHT22;9417;16.484;102.872;2022-11-20T11:44:36;27.70;73.00
18575;DHT22;9417;16.484;102.872;2022-11-20T11:47:00;27.60;72.30
18575;DHT22;9417;16.484;102.872;2022-11-20T11:49:17;27.60;72.60
18575;DHT22;9417;16.484;102.872;2022-11-20T11:51:28;27.50;72.80
18575;DHT22;9417;16.484;102.872;2022-11-20T11:53:39;27.50;73.70
18575;DHT22;9417;16.484;102.872;2022-11-20T11:55:53;27.40;73.70
18575;DHT22;9417;16.484;102.872;2022-11-20T11:58:11;27.40;75.20
18575;DHT22;9417;16.484;102.872;2022-11-20T12:00:21;27.40;76.40
18575;DHT22;9417;16.484;102.872;2022-11-20T12:02:35;27.30;76.30
18575;DHT22;9417;16.484;102.872;2022-11-20T12:04:46;27.30;76.20
18575;DHT22;9417;16.484;102.872;2022-11-20T12:07:03;27.20;76.10
18575;DHT22;9417;16.484;102.872;2022-11-20T12:09:35;27.20;77.00
18575;DHT22;9417;16.484;102.872;2022-11-20T12:11:49;27.20;77.50
18575;DHT22;9417;16.484;102.872;2022-11-20T12:14:00;27.20;77.90
18575;DHT22;9417;16.484;102.872;2022-11-20T12:16:13;27.20;78.00
18575;DHT22;9417;16.484;102.872;2022-11-20T12:18:21;27.10;77.80
18575;DHT22;9417;16.484;102.872;2022-11-20T12:20:32;27.20;77.40
18575;DHT22;9417;16.484;102.872;2022-11-20T12:22:48;27.10;76.50
18575;DHT22;9417;16.484;102.872;2022-11-20T12:25:00;27.10;76.50
18575;DHT22;9417;16.484;102.872;2022-11-20T12:29:53;27.10;79.50
18575;DHT22;9417;16.484;102.872;2022-11-20T12:32:17;27.00;79.00
18575;DHT22;9417;16.484;102.872;2022-11-20T12:34:49;27.10;79.30
18575;DHT22;9417;16.484;102.872;2022-11-20T12:37:09;27.00;79.70
18575;DHT22;9417;16.484;102.872;2022-11-20T12:39:33;27.00;78.70
18575;DHT22;9417;16.484;102.872;2022-11-20T12:44:49;26.80;77.50
18575;DHT22;9417;16.484;102.872;2022-11-20T12:47:22;26.70;78.40
18575;DHT22;9417;16.484;102.872;2022-11-20T12:49:37;26.60;79.20
18575;DHT22;9417;16.484;102.872;2022-11-20T12:54:52;26.60;80.90
18575;DHT22;9417;16.484;102.872;2022-11-20T12:57:05;26.60;80.70
18575;DHT22;9417;16.484;102.872;2022-11-20T12:59:27;26.50;80.80
18575;DHT22;9417;16.484;102.872;2022-11-20T13:01:47;26.50;81.70
18575;DHT22;9417;16.484;102.872;2022-11-20T13:03:58;26.50;82.00
18575;DHT22;9417;16.484;102.872;2022-11-20T13:06:16;26.60;82.00
18575;DHT22;9417;16.484;102.872;2022-11-20T13:08:27;26.60;81.90
18575;DHT22;9417;16.484;102.872;2022-11-20T13:10:38;26.60;82.10
18575;DHT22;9417;16.484;102.872;2022-11-20T13:12:51;26.60;81.70
18575;DHT22;9417;16.484;102.872;2022-11-20T13:15:08;26.60;80.50
18575;DHT22;9417;16.484;102.872;2022-11-20T13:17:30;26.60;79.90
18575;DHT22;9417;16.484;102.872;2022-11-20T13:19:39;26.60;79.50
18575;DHT22;9417;16.484;102.872;2022-11-20T13:21:48;26.60;80.30
18575;DHT22;9417;16.484;102.872;2022-11-20T13:24:05;26.50;81.20
18575;DHT22;9417;16.484;102.872;2022-11-20T13:26:18;26.40;81.10
18575;DHT22;9417;16.484;102.872;2022-11-20T13:28:29;26.40;81.30
18575;DHT22;9417;16.484;102.872;2022-11-20T13:30:48;26.40;81.10
18575;DHT22;9417;16.484;102.872;2022-11-20T13:32:58;26.30;81.50
18575;DHT22;9417;16.484;102.872;2022-11-20T13:35:10;26.30;81.90
18575;DHT22;9417;16.484;102.872;2022-11-20T13:37:25;26.30;82.00
18575;DHT22;9417;16.484;102.872;2022-11-20T13:39:34;26.30;82.00
18575;DHT22;9417;16.484;102.872;2022-11-20T13:41:42;26.30;82.40